createdAt,value
2018-09-17T00:02:29.198Z,3.73
2018-09-17T00:05:32.947Z,4.03
2018-09-17T00:08:36.507Z,3.40
2018-09-17T00:11:40.312Z,4.27
2018-09-17T00:14:44.047Z,4.00
2018-09-17T00:17:47.736Z,3.80
2018-09-17T00:20:51.332Z,3.50
2018-09-17T00:23:54.972Z,3.77
2018-09-17T00:26:58.516Z,3.77
2018-09-17T00:30:02.208Z,3.57
2018-09-17T00:33:05.808Z,3.73
2018-09-17T00:36:09.568Z,3.73
2018-09-17T00:39:13.554Z,3.80
2018-09-17T00:42:17.272Z,3.67
2018-09-17T00:45:20.997Z,4.63
2018-09-17T00:48:24.772Z,3.50
2018-09-17T00:51:28.448Z,3.50
2018-09-17T00:54:32.045Z,3.70
2018-09-17T00:57:35.660Z,3.77
2018-09-17T01:00:39.260Z,3.47
2018-09-17T01:03:42.852Z,3.70
2018-09-17T01:06:46.472Z,3.90
2018-09-17T01:09:50.131Z,3.90
2018-09-17T01:12:53.761Z,3.60
2018-09-17T01:15:57.471Z,3.87
2018-09-17T01:19:01.052Z,4.00
2018-09-17T01:22:04.732Z,3.70
2018-09-17T01:25:08.367Z,4.17
2018-09-17T01:28:11.991Z,3.90
2018-09-17T01:31:15.616Z,3.93
2018-09-17T01:34:19.296Z,3.40
2018-09-17T01:37:22.973Z,4.00
2018-09-17T01:40:26.692Z,3.80
2018-09-17T01:43:30.358Z,3.50
2018-09-17T01:46:34.005Z,3.67
2018-09-17T01:49:37.575Z,3.80
2018-09-17T01:52:41.260Z,3.50
2018-09-17T01:55:44.837Z,3.60
2018-09-17T01:58:48.845Z,3.50
2018-09-17T02:01:52.514Z,4.00
2018-09-17T02:04:56.185Z,3.80
2018-09-17T02:07:59.712Z,3.73
2018-09-17T02:11:03.312Z,3.67
2018-09-17T02:14:07.062Z,3.70
2018-09-17T02:17:10.666Z,3.70
2018-09-17T02:20:14.223Z,3.77
2018-09-17T02:23:17.891Z,3.50
2018-09-17T02:26:21.561Z,3.73
2018-09-17T02:29:25.248Z,4.07
2018-09-17T02:32:28.899Z,3.80
2018-09-17T02:35:32.606Z,4.30
2018-09-17T02:38:36.297Z,3.57
2018-09-17T02:41:39.867Z,3.77
2018-09-17T02:44:43.654Z,3.83
2018-09-17T02:47:47.239Z,4.27
2018-09-17T02:50:50.861Z,3.70
2018-09-17T02:53:54.772Z,3.50
2018-09-17T02:56:58.302Z,3.63
2018-09-17T03:00:01.901Z,3.73
2018-09-17T03:03:05.685Z,3.67
2018-09-17T03:06:09.198Z,4.37
2018-09-17T03:09:12.745Z,3.70
2018-09-17T03:12:16.400Z,3.70
2018-09-17T03:15:31.198Z,4.20
2018-09-17T03:18:46.036Z,3.60
2018-09-17T03:21:49.716Z,3.80
2018-09-17T03:24:53.387Z,3.87
2018-09-17T03:27:57.050Z,3.93
2018-09-17T03:31:00.732Z,3.17
2018-09-17T03:34:04.442Z,3.73
2018-09-17T03:37:08.110Z,3.77
2018-09-17T03:40:11.695Z,3.90
2018-09-17T03:43:15.446Z,3.50
2018-09-17T03:46:19.237Z,3.90
2018-09-17T03:49:22.810Z,3.90
2018-09-17T03:52:26.453Z,3.63
2018-09-17T03:55:30.111Z,3.90
2018-09-17T03:58:33.711Z,3.90
2018-09-17T04:01:37.443Z,3.67
2018-09-17T04:04:41.385Z,4.00
2018-09-17T04:07:44.962Z,3.70
2018-09-17T04:10:48.528Z,4.00
2018-09-17T04:13:52.135Z,4.27
2018-09-17T04:16:55.772Z,4.20
2018-09-17T04:20:00.287Z,4.20
2018-09-17T04:23:04.047Z,3.97
2018-09-17T04:26:09.886Z,3.87
2018-09-17T04:29:13.467Z,4.07
2018-09-17T04:32:17.216Z,4.50
2018-09-17T04:35:20.987Z,4.03
2018-09-17T04:38:24.702Z,4.00
2018-09-17T04:41:28.328Z,4.10
2018-09-17T04:44:31.915Z,3.93
2018-09-17T04:47:35.777Z,3.87
2018-09-17T04:50:39.630Z,4.23
2018-09-17T04:53:44.192Z,4.23
2018-09-17T04:56:47.876Z,3.70
2018-09-17T04:59:51.551Z,4.50
2018-09-17T05:02:55.336Z,3.90
2018-09-17T05:05:58.971Z,4.40
2018-09-17T05:09:02.595Z,4.20
2018-09-17T05:12:06.795Z,4.23
2018-09-17T05:15:10.474Z,4.80
2018-09-17T05:18:14.136Z,4.23
2018-09-17T05:21:17.761Z,4.30
2018-09-17T05:24:21.335Z,4.00
2018-09-17T05:27:25.023Z,4.00
2018-09-17T05:30:28.586Z,4.63
2018-09-17T05:33:32.331Z,4.13
2018-09-17T05:36:36.056Z,4.80
2018-09-17T05:39:39.701Z,4.10
2018-09-17T05:42:43.393Z,4.10
2018-09-17T05:45:47.063Z,4.13
2018-09-17T05:48:50.752Z,4.13
2018-09-17T05:51:54.487Z,4.20
2018-09-17T05:54:58.137Z,4.37
2018-09-17T05:58:01.917Z,4.43
2018-09-17T06:01:05.648Z,4.40
2018-09-17T06:04:09.362Z,4.50
2018-09-17T06:07:13.026Z,4.33
2018-09-17T06:10:17.508Z,4.43
2018-09-17T06:13:21.127Z,4.40
2018-09-17T06:16:24.791Z,4.00
2018-09-17T06:19:28.518Z,3.83
2018-09-17T06:22:32.195Z,4.23
2018-09-17T06:25:35.911Z,4.30
2018-09-17T06:28:39.531Z,3.80
2018-09-17T06:31:43.177Z,4.10
2018-09-17T06:34:46.764Z,4.57
2018-09-17T06:37:50.381Z,5.47
2018-09-17T06:40:53.936Z,4.30
2018-09-17T06:43:57.661Z,4.30
2018-09-17T06:47:01.242Z,3.70
2018-09-17T06:50:05.015Z,4.50
2018-09-17T06:53:08.708Z,4.63
2018-09-17T06:56:12.343Z,4.50
2018-09-17T06:59:15.992Z,4.97
2018-09-17T07:02:19.592Z,4.27
2018-09-17T07:05:23.336Z,5.20
2018-09-17T07:08:27.003Z,4.43
2018-09-17T07:11:30.610Z,4.43
2018-09-17T07:14:34.266Z,4.57
2018-09-17T07:17:38.064Z,5.03
2018-09-17T07:20:41.996Z,5.13
2018-09-17T07:23:45.676Z,4.57
2018-09-17T07:26:49.302Z,4.47
2018-09-17T07:29:52.911Z,4.93
2018-09-17T07:32:56.489Z,4.93
2018-09-17T07:36:00.193Z,5.07
2018-09-17T07:39:04.448Z,4.87
2018-09-17T07:42:08.031Z,4.70
2018-09-17T07:45:11.803Z,5.30
2018-09-17T07:48:15.563Z,5.67
2018-09-17T07:51:19.261Z,4.53
2018-09-17T07:54:23.041Z,5.20
2018-09-17T07:57:26.688Z,4.80
2018-09-17T08:00:30.367Z,5.30
2018-09-17T08:03:33.935Z,5.63
2018-09-17T08:06:37.648Z,5.10
2018-09-17T08:09:41.383Z,6.03
2018-09-17T08:12:44.956Z,5.17
2018-09-17T08:15:48.665Z,4.90
2018-09-17T08:18:52.430Z,5.30
2018-09-17T08:21:56.062Z,5.33
2018-09-17T08:24:59.666Z,5.00
2018-09-17T08:28:03.348Z,4.70
2018-09-17T08:31:07.288Z,5.63
2018-09-17T08:34:11.013Z,6.73
2018-09-17T08:37:14.645Z,4.90
2018-09-17T08:40:18.272Z,6.00
2018-09-17T08:43:21.975Z,6.03
2018-09-17T08:46:25.762Z,5.43
2018-09-17T08:49:29.407Z,5.80
2018-09-17T08:52:33.207Z,5.10
2018-09-17T08:55:42.110Z,5.83
2018-09-17T08:58:50.945Z,5.90
2018-09-17T09:01:59.656Z,5.90
2018-09-17T09:05:08.684Z,5.83
2018-09-17T09:08:12.413Z,6.27
2018-09-17T09:11:16.232Z,5.37
2018-09-17T09:14:25.512Z,5.80
2018-09-17T09:17:29.228Z,5.57
2018-09-17T09:20:32.987Z,5.57
2018-09-17T09:23:36.601Z,6.10
2018-09-17T09:26:40.236Z,5.60
2018-09-17T09:29:44.015Z,5.90
2018-09-17T09:32:47.721Z,5.70
2018-09-17T09:35:51.315Z,5.43
2018-09-17T09:38:55.022Z,6.13
2018-09-17T09:41:58.742Z,5.13
2018-09-17T09:45:02.497Z,5.57
2018-09-17T09:48:06.249Z,5.97
2018-09-17T09:51:09.912Z,5.10
2018-09-17T09:54:13.565Z,5.10
2018-09-17T09:57:17.337Z,5.97
2018-09-17T10:00:26.600Z,6.80
2018-09-17T10:03:30.300Z,5.40
2018-09-17T10:06:34.041Z,4.80
2018-09-17T10:09:42.806Z,4.87
2018-09-17T10:12:51.656Z,5.00
2018-09-17T10:15:56.876Z,4.10
2018-09-17T10:19:05.806Z,4.03
2018-09-17T10:22:09.367Z,4.60
2018-09-17T10:25:13.077Z,4.87
2018-09-17T10:28:16.788Z,4.97
2018-09-17T10:31:20.445Z,4.50
2018-09-17T10:34:24.055Z,4.67
2018-09-17T10:37:27.766Z,4.30
2018-09-17T10:40:31.317Z,4.30
2018-09-17T10:43:35.101Z,4.00
2018-09-17T10:46:38.932Z,4.20
2018-09-17T10:49:42.568Z,4.27
2018-09-17T10:52:46.206Z,4.33
2018-09-17T10:55:49.903Z,4.00
2018-09-17T10:58:53.602Z,3.77
2018-09-17T11:01:57.224Z,3.87
2018-09-17T11:05:00.935Z,4.13
2018-09-17T11:08:04.985Z,4.37
2018-09-17T11:11:08.706Z,4.50
2018-09-17T11:14:12.420Z,4.60
2018-09-17T11:17:16.122Z,4.70
2018-09-17T11:20:19.857Z,5.67
2018-09-17T11:23:23.480Z,4.23
2018-09-17T11:26:27.131Z,4.60
2018-09-17T11:29:30.873Z,4.80
2018-09-17T11:32:34.578Z,4.43
2018-09-17T11:35:38.244Z,4.23
2018-09-17T11:38:41.906Z,4.30
2018-09-17T11:41:45.870Z,4.60
2018-09-17T11:44:49.686Z,4.50
2018-09-17T11:47:53.271Z,4.50
2018-09-17T11:50:57.122Z,4.20
2018-09-17T11:54:00.823Z,5.00
2018-09-17T11:57:04.679Z,4.30
2018-09-17T12:00:08.598Z,4.17
2018-09-17T12:03:17.313Z,4.03
2018-09-17T12:06:26.191Z,3.60
2018-09-17T12:09:30.028Z,4.40
2018-09-17T12:12:33.771Z,3.60
2018-09-17T12:15:40.883Z,3.90
2018-09-17T12:18:44.591Z,3.90
2018-09-17T12:21:48.414Z,4.13
2018-09-17T12:24:52.135Z,4.43
2018-09-17T12:27:55.828Z,4.13
2018-09-17T12:30:59.532Z,4.20
2018-09-17T12:34:03.203Z,4.13
2018-09-17T12:37:06.847Z,4.40
2018-09-17T12:40:10.484Z,4.60
2018-09-17T12:43:14.162Z,4.27
2018-09-17T12:46:17.852Z,4.20
2018-09-17T12:49:21.465Z,4.00
2018-09-17T12:52:25.097Z,4.40
2018-09-17T12:55:28.826Z,3.90
2018-09-17T12:58:32.575Z,4.60
2018-09-17T13:01:36.237Z,4.07
2018-09-17T13:04:39.913Z,4.17
2018-09-17T13:07:43.571Z,3.93
2018-09-17T13:10:47.352Z,4.50
2018-09-17T13:13:51.096Z,3.80
2018-09-17T13:16:54.764Z,4.17
2018-09-17T13:19:58.431Z,4.90
2018-09-17T13:23:02.072Z,5.20
2018-09-17T13:26:05.817Z,4.43
2018-09-17T13:29:09.592Z,4.20
2018-09-17T13:32:13.222Z,4.50
2018-09-17T13:35:16.871Z,4.63
2018-09-17T13:38:20.592Z,4.60
2018-09-17T13:41:24.302Z,5.07
2018-09-17T13:44:28.242Z,4.10
2018-09-17T13:47:32.318Z,5.00
2018-09-17T13:50:36.382Z,4.50
2018-09-17T13:53:40.473Z,5.03
2018-09-17T13:56:44.200Z,5.90
2018-09-17T13:59:48.051Z,5.53
2018-09-17T14:02:51.788Z,5.30
2018-09-17T14:05:55.475Z,5.77
2018-09-17T14:08:59.115Z,5.97
2018-09-17T14:12:02.820Z,5.50
2018-09-17T14:15:06.641Z,5.30
2018-09-17T14:18:10.383Z,6.60
2018-09-17T14:21:15.139Z,6.77
2018-09-17T14:24:18.959Z,5.10
2018-09-17T14:27:22.770Z,5.97
2018-09-17T14:30:26.638Z,5.20
2018-09-17T14:33:35.616Z,5.40
2018-09-17T14:36:39.286Z,6.40
2018-09-17T14:39:43.068Z,6.10
2018-09-17T14:42:46.913Z,5.17
2018-09-17T14:45:50.573Z,5.80
2018-09-17T14:48:54.322Z,5.87
2018-09-17T14:51:58.336Z,6.07
2018-09-17T14:55:02.007Z,6.07
2018-09-17T14:58:05.985Z,5.70
2018-09-17T15:01:09.656Z,5.73
2018-09-17T15:04:13.406Z,6.90
2018-09-17T15:07:17.080Z,7.10
2018-09-17T15:10:20.906Z,5.20
2018-09-17T15:13:24.486Z,6.10
2018-09-17T15:16:28.326Z,6.93
2018-09-17T15:19:31.978Z,6.50
2018-09-17T15:22:35.801Z,6.03
2018-09-17T15:25:39.762Z,4.80
2018-09-17T15:28:43.607Z,4.40
2018-09-17T15:31:47.811Z,4.40
2018-09-17T15:34:51.518Z,5.70
2018-09-17T15:37:55.291Z,5.60
2018-09-17T15:41:01.006Z,6.53
2018-09-17T15:44:04.803Z,5.60
2018-09-17T15:47:08.696Z,4.63
2018-09-17T15:50:12.369Z,4.17
2018-09-17T15:53:16.048Z,4.30
2018-09-17T15:56:19.828Z,4.40
2018-09-17T15:59:23.532Z,4.90
2018-09-17T16:02:27.480Z,4.73
2018-09-17T16:05:31.200Z,4.70
2018-09-17T16:08:35.067Z,4.10
2018-09-17T16:11:39.022Z,4.60
2018-09-17T16:14:42.957Z,4.70
2018-09-17T16:17:46.830Z,4.43
2018-09-17T16:20:50.562Z,4.30
2018-09-17T16:23:54.351Z,3.90
2018-09-17T16:26:58.526Z,4.30
2018-09-17T16:30:02.420Z,4.40
2018-09-17T16:33:06.226Z,4.17
2018-09-17T16:36:10.873Z,4.10
2018-09-17T16:39:14.576Z,4.37
2018-09-17T16:42:19.083Z,4.00
2018-09-17T16:45:22.764Z,5.17
2018-09-17T16:48:26.531Z,4.20
2018-09-17T16:51:30.529Z,3.93
2018-09-17T16:54:35.006Z,4.40
2018-09-17T16:57:38.732Z,4.60
2018-09-17T17:00:42.420Z,4.43
2018-09-17T17:03:46.120Z,4.60
2018-09-17T17:06:50.233Z,4.07
2018-09-17T17:09:54.134Z,4.87
2018-09-17T17:12:57.877Z,4.40
2018-09-17T17:16:01.703Z,3.87
2018-09-17T17:19:05.463Z,4.20
2018-09-17T17:22:09.243Z,4.10
2018-09-17T17:25:13.143Z,4.20
2018-09-17T17:28:17.358Z,4.53
2018-09-17T17:31:21.133Z,4.30
2018-09-17T17:34:25.782Z,4.20
2018-09-17T17:37:30.039Z,4.00
2018-09-17T17:40:34.172Z,4.23
2018-09-17T17:43:37.911Z,4.40
2018-09-17T17:46:41.716Z,4.00
2018-09-17T17:49:46.244Z,4.10
2018-09-17T17:52:50.056Z,4.33
2018-09-17T17:55:53.881Z,4.57
2018-09-17T17:58:57.603Z,4.40
2018-09-17T18:02:01.440Z,4.80
2018-09-17T18:05:05.358Z,4.40
2018-09-17T18:08:09.659Z,5.00
2018-09-17T18:11:13.316Z,4.60
2018-09-17T18:14:17.156Z,4.40
2018-09-17T18:17:20.918Z,4.57
2018-09-17T18:20:24.747Z,4.27
2018-09-17T18:23:28.521Z,4.30
2018-09-17T18:26:32.273Z,3.90
2018-09-17T18:29:35.977Z,4.23
2018-09-17T18:32:39.798Z,4.07
2018-09-17T18:35:43.609Z,4.07
2018-09-17T18:38:47.486Z,4.77
2018-09-17T18:41:51.155Z,4.27
2018-09-17T18:44:55.068Z,4.17
2018-09-17T18:47:58.809Z,4.20
2018-09-17T18:51:02.709Z,4.50
2018-09-17T18:54:06.666Z,4.80
2018-09-17T18:57:10.546Z,4.13
2018-09-17T19:00:14.391Z,4.43
2018-09-17T19:03:18.336Z,4.20
2018-09-17T19:06:22.141Z,4.40
2018-09-17T19:09:30.951Z,3.80
2018-09-17T19:12:34.847Z,4.50
2018-09-17T19:15:43.655Z,3.90
2018-09-17T19:18:47.436Z,4.00
2018-09-17T19:21:56.519Z,4.07
2018-09-17T19:25:00.200Z,4.67
2018-09-17T19:28:08.993Z,4.30
2018-09-17T19:31:12.761Z,4.20
2018-09-17T19:34:16.808Z,4.90
2018-09-17T19:37:25.572Z,4.10
2018-09-17T19:40:29.331Z,4.10
2018-09-17T19:43:33.100Z,4.17
2018-09-17T19:46:36.754Z,3.97
2018-09-17T19:49:40.598Z,4.00
2018-09-17T19:52:44.238Z,4.10
2018-09-17T19:55:48.531Z,4.10
2018-09-17T19:58:57.367Z,4.60
2018-09-17T20:02:01.197Z,3.80
2018-09-17T20:05:10.341Z,4.70
2018-09-17T20:08:14.373Z,4.73
2018-09-17T20:11:18.236Z,4.20
2018-09-17T20:14:21.952Z,4.40
2018-09-17T20:17:25.696Z,4.83
2018-09-17T20:20:29.428Z,4.90
2018-09-17T20:23:33.177Z,4.63
2018-09-17T20:26:36.822Z,4.60
2018-09-17T20:29:40.500Z,4.10
2018-09-17T20:32:44.416Z,4.00
2018-09-17T20:35:48.275Z,4.30
2018-09-17T20:38:51.995Z,4.60
2018-09-17T20:41:55.797Z,3.80
2018-09-17T20:44:59.600Z,4.80
2018-09-17T20:48:03.658Z,4.10
2018-09-17T20:51:08.081Z,4.20
2018-09-17T20:54:11.792Z,4.10
2018-09-17T20:57:15.574Z,4.20
2018-09-17T21:00:19.293Z,5.00
2018-09-17T21:03:22.960Z,4.03
2018-09-17T21:06:26.743Z,4.30
2018-09-17T21:09:30.489Z,3.97
2018-09-17T21:12:34.112Z,4.40
2018-09-17T21:15:37.989Z,4.43
2018-09-17T21:18:41.710Z,4.47
2018-09-17T21:21:45.418Z,4.50
2018-09-17T21:24:49.231Z,4.30
2018-09-17T21:27:52.895Z,4.63
2018-09-17T21:30:56.555Z,4.63
2018-09-17T21:34:00.216Z,4.57
2018-09-17T21:37:03.806Z,3.97
2018-09-17T21:40:07.546Z,4.40
2018-09-17T21:43:11.290Z,4.10
2018-09-17T21:46:14.940Z,4.50
2018-09-17T21:49:18.516Z,4.47
2018-09-17T21:52:22.257Z,5.07
2018-09-17T21:55:25.961Z,4.60
2018-09-17T21:58:29.637Z,4.73
2018-09-17T22:01:33.297Z,4.60
2018-09-17T22:04:37.008Z,4.67
2018-09-17T22:07:40.732Z,4.20
2018-09-17T22:10:44.355Z,4.80
2018-09-17T22:13:48.014Z,4.40
2018-09-17T22:16:51.615Z,4.43
2018-09-17T22:19:55.455Z,4.57
2018-09-17T22:22:58.995Z,4.53
2018-09-17T22:26:02.720Z,4.10
2018-09-17T22:29:06.593Z,5.10
2018-09-17T22:32:10.113Z,5.20
2018-09-17T22:35:13.799Z,5.07
2018-09-17T22:38:17.553Z,4.90
2018-09-17T22:41:21.085Z,5.03
2018-09-17T22:44:24.751Z,4.90
2018-09-17T22:47:28.455Z,5.10
2018-09-17T22:50:32.141Z,4.83
2018-09-17T22:53:35.895Z,4.57
2018-09-17T22:56:39.567Z,5.03
2018-09-17T22:59:43.225Z,4.77
2018-09-17T23:02:46.946Z,4.90
2018-09-17T23:05:50.595Z,4.73
2018-09-17T23:08:54.213Z,4.80
2018-09-17T23:11:57.915Z,4.87
2018-09-17T23:15:01.627Z,5.13
2018-09-17T23:18:05.271Z,5.00
2018-09-17T23:21:08.945Z,4.93
2018-09-17T23:24:12.676Z,5.20
2018-09-17T23:27:16.369Z,4.80
2018-09-17T23:30:20.062Z,6.10
2018-09-17T23:33:23.849Z,4.83
2018-09-17T23:36:27.466Z,5.33
2018-09-17T23:39:31.046Z,4.83
2018-09-17T23:42:34.660Z,5.10
2018-09-17T23:45:38.345Z,4.83
2018-09-17T23:48:41.964Z,5.10
2018-09-17T23:51:45.776Z,5.70
2018-09-17T23:54:49.338Z,5.07
2018-09-17T23:57:52.919Z,5.00
